sensor_id;sensor_type;location;lat;lon;timestamp;pressure;altitude;pressure_sealevel;temperature;humidity
4022;BME280;2025;48.260;16.432;2023-05-10T00:02:01;99754.50;;;10.91;61.58
4022;BME280;2025;48.260;16.432;2023-05-10T00:04:28;99753.47;;;10.92;61.79
4022;BME280;2025;48.260;16.432;2023-05-10T00:06:55;99753.66;;;10.90;62.06
4022;BME280;2025;48.260;16.432;2023-05-10T00:09:22;99746.75;;;10.81;62.72
4022;BME280;2025;48.260;16.432;2023-05-10T00:11:48;99751.22;;;10.81;62.44
4022;BME280;2025;48.260;16.432;2023-05-10T00:14:17;99752.69;;;10.83;62.82
4022;BME280;2025;48.260;16.432;2023-05-10T00:16:44;99749.41;;;10.81;62.85
4022;BME280;2025;48.260;16.432;2023-05-10T00:19:11;99745.66;;;10.75;63.23
4022;BME280;2025;48.260;16.432;2023-05-10T00:21:38;99736.75;;;10.76;63.24
4022;BME280;2025;48.260;16.432;2023-05-10T00:24:05;99740.53;;;10.82;63.27
4022;BME280;2025;48.260;16.432;2023-05-10T00:26:32;99737.09;;;10.73;63.79
4022;BME280;2025;48.260;16.432;2023-05-10T00:28:59;99740.53;;;10.74;63.77
4022;BME280;2025;48.260;16.432;2023-05-10T00:31:27;99735.28;;;10.74;63.78
4022;BME280;2025;48.260;16.432;2023-05-10T00:33:55;99731.66;;;10.75;63.93
4022;BME280;2025;48.260;16.432;2023-05-10T00:36:22;99728.09;;;10.60;64.78
4022;BME280;2025;48.260;16.432;2023-05-10T00:38:49;99722.66;;;10.61;64.76
4022;BME280;2025;48.260;16.432;2023-05-10T00:41:16;99722.16;;;10.58;64.71
4022;BME280;2025;48.260;16.432;2023-05-10T00:43:43;99718.72;;;10.57;64.95
4022;BME280;2025;48.260;16.432;2023-05-10T00:46:10;99715.94;;;10.50;65.25
4022;BME280;2025;48.260;16.432;2023-05-10T00:48:39;99715.78;;;10.52;65.35
4022;BME280;2025;48.260;16.432;2023-05-10T00:51:06;99705.59;;;10.49;65.42
4022;BME280;2025;48.260;16.432;2023-05-10T00:53:34;99710.84;;;10.49;65.42
4022;BME280;2025;48.260;16.432;2023-05-10T00:56:01;99705.09;;;10.45;65.52
4022;BME280;2025;48.260;16.432;2023-05-10T00:58:28;99710.19;;;10.47;65.77
4022;BME280;2025;48.260;16.432;2023-05-10T01:00:56;99700.00;;;10.44;65.78
4022;BME280;2025;48.260;16.432;2023-05-10T01:03:25;99696.53;;;10.43;65.81
4022;BME280;2025;48.260;16.432;2023-05-10T01:05:53;99695.22;;;10.39;66.12
4022;BME280;2025;48.260;16.432;2023-05-10T01:08:20;99687.19;;;10.41;65.75
4022;BME280;2025;48.260;16.432;2023-05-10T01:10:48;99686.88;;;10.36;66.04
4022;BME280;2025;48.260;16.432;2023-05-10T01:13:23;99685.72;;;10.30;66.33
4022;BME280;2025;48.260;16.432;2023-05-10T01:15:54;99685.41;;;10.17;67.28
4022;BME280;2025;48.260;16.432;2023-05-10T01:18:21;99677.50;;;10.17;66.93
4022;BME280;2025;48.260;16.432;2023-05-10T01:20:55;99678.84;;;10.12;67.20
4022;BME280;2025;48.260;16.432;2023-05-10T01:23:36;99679.81;;;10.11;67.17
4022;BME280;2025;48.260;16.432;2023-05-10T01:26:35;99674.22;;;10.15;67.50
4022;BME280;2025;48.260;16.432;2023-05-10T01:29:22;99666.63;;;10.20;67.16
4022;BME280;2025;48.260;16.432;2023-05-10T01:32:08;99658.25;;;10.16;67.16
4022;BME280;2025;48.260;16.432;2023-05-10T01:34:45;99670.28;;;10.19;67.20
4022;BME280;2025;48.260;16.432;2023-05-10T01:37:18;99659.25;;;10.15;67.54
4022;BME280;2025;48.260;16.432;2023-05-10T01:39:51;99661.56;;;10.02;67.92
4022;BME280;2025;48.260;16.432;2023-05-10T01:42:23;99660.09;;;10.07;67.69
4022;BME280;2025;48.260;16.432;2023-05-10T01:44:56;99655.16;;;10.04;67.99
4022;BME280;2025;48.260;16.432;2023-05-10T01:47:41;99661.75;;;10.00;68.19
4022;BME280;2025;48.260;16.432;2023-05-10T01:50:12;99655.66;;;10.00;68.14
4022;BME280;2025;48.260;16.432;2023-05-10T01:52:42;99658.28;;;10.00;68.52
4022;BME280;2025;48.260;16.432;2023-05-10T01:55:14;99663.75;;;9.98;68.21
4022;BME280;2025;48.260;16.432;2023-05-10T01:57:43;99660.59;;;9.95;68.35
4022;BME280;2025;48.260;16.432;2023-05-10T02:00:12;99654.22;;;9.89;68.65
4022;BME280;2025;48.260;16.432;2023-05-10T02:02:45;99648.97;;;9.81;68.92
4022;BME280;2025;48.260;16.432;2023-05-10T02:05:13;99650.94;;;9.79;69.14
4022;BME280;2025;48.260;16.432;2023-05-10T02:07:41;99647.97;;;9.74;69.25
4022;BME280;2025;48.260;16.432;2023-05-10T02:10:10;99643.56;;;9.66;69.47
4022;BME280;2025;48.260;16.432;2023-05-10T02:12:41;99640.91;;;9.58;70.15
4022;BME280;2025;48.260;16.432;2023-05-10T02:15:10;99646.53;;;9.55;70.13
4022;BME280;2025;48.260;16.432;2023-05-10T02:17:40;99646.19;;;9.49;70.32
4022;BME280;2025;48.260;16.432;2023-05-10T02:20:09;99644.41;;;9.42;70.71
4022;BME280;2025;48.260;16.432;2023-05-10T02:22:39;99646.38;;;9.40;71.01
4022;BME280;2025;48.260;16.432;2023-05-10T02:25:08;99647.34;;;9.39;71.01
4022;BME280;2025;48.260;16.432;2023-05-10T02:27:36;99649.00;;;9.40;71.14
4022;BME280;2025;48.260;16.432;2023-05-10T02:30:05;99643.06;;;9.29;71.75
4022;BME280;2025;48.260;16.432;2023-05-10T02:32:34;99643.91;;;9.30;71.83
4022;BME280;2025;48.260;16.432;2023-05-10T02:35:04;99644.53;;;9.32;71.64
4022;BME280;2025;48.260;16.432;2023-05-10T02:37:31;99650.28;;;9.27;72.10
4022;BME280;2025;48.260;16.432;2023-05-10T02:40:00;99643.06;;;9.29;71.75
4022;BME280;2025;48.260;16.432;2023-05-10T02:42:29;99643.72;;;9.32;71.63
4022;BME280;2025;48.260;16.432;2023-05-10T02:45:00;99640.63;;;9.28;71.96
4022;BME280;2025;48.260;16.432;2023-05-10T02:47:28;99647.50;;;9.29;72.04
4022;BME280;2025;48.260;16.432;2023-05-10T02:49:55;99636.19;;;9.28;71.93
4022;BME280;2025;48.260;16.432;2023-05-10T02:52:26;99637.16;;;9.19;72.50
4022;BME280;2025;48.260;16.432;2023-05-10T02:54:55;99645.69;;;9.21;72.47
4022;BME280;2025;48.260;16.432;2023-05-10T02:57:31;99646.81;;;9.11;73.06
4022;BME280;2025;48.260;16.432;2023-05-10T02:59:59;99650.78;;;9.15;72.74
4022;BME280;2025;48.260;16.432;2023-05-10T03:02:26;99649.78;;;9.07;73.11
4022;BME280;2025;48.260;16.432;2023-05-10T03:04:55;99647.63;;;8.95;73.54
4022;BME280;2025;48.260;16.432;2023-05-10T03:07:24;99652.56;;;8.98;73.21
4022;BME280;2025;48.260;16.432;2023-05-10T03:09:51;99642.72;;;9.00;73.43
4022;BME280;2025;48.260;16.432;2023-05-10T03:12:26;99643.50;;;8.92;73.98
4022;BME280;2025;48.260;16.432;2023-05-10T03:15:00;99655.50;;;8.95;73.76
4022;BME280;2025;48.260;16.432;2023-05-10T03:17:32;99649.09;;;8.89;73.82
4022;BME280;2025;48.260;16.432;2023-05-10T03:20:04;99649.41;;;8.86;73.87
4022;BME280;2025;48.260;16.432;2023-05-10T03:22:37;99642.03;;;8.81;74.07
4022;BME280;2025;48.260;16.432;2023-05-10T03:25:06;99656.31;;;8.79;74.43
4022;BME280;2025;48.260;16.432;2023-05-10T03:27:36;99652.81;;;8.78;74.68
4022;BME280;2025;48.260;16.432;2023-05-10T03:30:08;99653.81;;;8.77;74.56
4022;BME280;2025;48.260;16.432;2023-05-10T03:32:35;99645.91;;;8.69;74.92
4022;BME280;2025;48.260;16.432;2023-05-10T03:35:06;99658.06;;;8.70;75.13
4022;BME280;2025;48.260;16.432;2023-05-10T03:37:35;99665.22;;;8.60;75.39
4022;BME280;2025;48.260;16.432;2023-05-10T03:40:03;99654.75;;;8.60;75.26
4022;BME280;2025;48.260;16.432;2023-05-10T03:42:30;99664.41;;;8.59;75.36
4022;BME280;2025;48.260;16.432;2023-05-10T03:44:57;99656.53;;;8.51;75.93
4022;BME280;2025;48.260;16.432;2023-05-10T03:47:24;99663.06;;;8.47;76.00
4022;BME280;2025;48.260;16.432;2023-05-10T03:49:51;99658.97;;;8.53;76.14
4022;BME280;2025;48.260;16.432;2023-05-10T03:52:18;99658.00;;;8.54;76.20
4022;BME280;2025;48.260;16.432;2023-05-10T03:54:47;99658.50;;;8.57;75.68
4022;BME280;2025;48.260;16.432;2023-05-10T03:57:14;99662.13;;;8.56;75.99
4022;BME280;2025;48.260;16.432;2023-05-10T03:59:41;99667.38;;;8.56;75.81
4022;BME280;2025;48.260;16.432;2023-05-10T04:02:08;99662.13;;;8.56;76.27
4022;BME280;2025;48.260;16.432;2023-05-10T04:04:34;99658.50;;;8.57;76.06
4022;BME280;2025;48.260;16.432;2023-05-10T04:07:01;99664.28;;;8.61;75.72
4022;BME280;2025;48.260;16.432;2023-05-10T04:09:29;99673.31;;;8.67;75.75
4022;BME280;2025;48.260;16.432;2023-05-10T04:11:58;99667.91;;;8.68;75.71
4022;BME280;2025;48.260;16.432;2023-05-10T04:14:25;99669.19;;;8.64;76.10
4022;BME280;2025;48.260;16.432;2023-05-10T04:16:52;99674.78;;;8.69;75.76
4022;BME280;2025;48.260;16.432;2023-05-10T04:19:19;99672.00;;;8.71;75.79
4022;BME280;2025;48.260;16.432;2023-05-10T04:21:46;99674.50;;;8.80;75.38
4022;BME280;2025;48.260;16.432;2023-05-10T04:24:13;99677.16;;;8.89;75.18
4022;BME280;2025;48.260;16.432;2023-05-10T04:26:40;99676.84;;;8.92;75.31
4022;BME280;2025;48.260;16.432;2023-05-10T04:29:08;99683.41;;;8.96;74.42
4022;BME280;2025;48.260;16.432;2023-05-10T04:31:35;99680.31;;;9.00;74.62
4022;BME280;2025;48.260;16.432;2023-05-10T04:34:02;99680.81;;;9.12;74.63
4022;BME280;2025;48.260;16.432;2023-05-10T04:36:29;99682.97;;;9.17;74.05
4022;BME280;2025;48.260;16.432;2023-05-10T04:38:57;99679.03;;;9.21;73.82
4022;BME280;2025;48.260;16.432;2023-05-10T04:41:24;99678.88;;;9.31;73.50
4022;BME280;2025;48.260;16.432;2023-05-10T04:43:51;99686.59;;;9.40;72.87
4022;BME280;2025;48.260;16.432;2023-05-10T04:46:20;99676.28;;;9.47;72.21
4022;BME280;2025;48.260;16.432;2023-05-10T04:48:47;99680.69;;;9.55;72.16
4022;BME280;2025;48.260;16.432;2023-05-10T04:51:14;99688.75;;;9.61;72.08
4022;BME280;2025;48.260;16.432;2023-05-10T04:53:41;99689.41;;;9.63;71.90
4022;BME280;2025;48.260;16.432;2023-05-10T04:56:08;99682.50;;;9.62;71.67
4022;BME280;2025;48.260;16.432;2023-05-10T04:58:35;99682.47;;;9.79;71.01
4022;BME280;2025;48.260;16.432;2023-05-10T05:01:05;99681.84;;;9.93;70.56
4022;BME280;2025;48.260;16.432;2023-05-10T05:03:34;99691.00;;;9.97;70.76
4022;BME280;2025;48.260;16.432;2023-05-10T05:06:02;99684.56;;;10.16;69.60
4022;BME280;2025;48.260;16.432;2023-05-10T05:08:29;99690.16;;;10.29;68.93
4022;BME280;2025;48.260;16.432;2023-05-10T05:10:56;99683.56;;;10.33;68.62
4022;BME280;2025;48.260;16.432;2023-05-10T05:13:23;99683.00;;;10.54;67.88
4022;BME280;2025;48.260;16.432;2023-05-10T05:15:50;99684.31;;;10.59;67.89
4022;BME280;2025;48.260;16.432;2023-05-10T05:18:17;99684.06;;;10.76;67.35
4022;BME280;2025;48.260;16.432;2023-05-10T05:20:45;99680.16;;;10.95;66.31
4022;BME280;2025;48.260;16.432;2023-05-10T05:23:12;99677.91;;;11.15;65.46
4022;BME280;2025;48.260;16.432;2023-05-10T05:25:39;99670.72;;;11.32;64.86
4022;BME280;2025;48.260;16.432;2023-05-10T05:28:06;99674.94;;;11.42;64.63
4022;BME280;2025;48.260;16.432;2023-05-10T05:30:33;99670.91;;;11.54;64.36
4022;BME280;2025;48.260;16.432;2023-05-10T05:33:00;99669.69;;;11.79;64.14
4022;BME280;2025;48.260;16.432;2023-05-10T05:35:27;99672.28;;;12.02;63.27
4022;BME280;2025;48.260;16.432;2023-05-10T05:37:55;99675.38;;;12.21;62.23
4022;BME280;2025;48.260;16.432;2023-05-10T05:40:22;99674.88;;;12.40;61.70
4022;BME280;2025;48.260;16.432;2023-05-10T05:42:49;99669.25;;;12.65;60.61
4022;BME280;2025;48.260;16.432;2023-05-10T05:45:16;99672.06;;;12.78;60.92
4022;BME280;2025;48.260;16.432;2023-05-10T05:47:43;99671.06;;;12.79;61.28
4022;BME280;2025;48.260;16.432;2023-05-10T05:50:10;99677.78;;;12.97;60.06
4022;BME280;2025;48.260;16.432;2023-05-10T05:52:37;99670.28;;;13.00;59.62
4022;BME280;2025;48.260;16.432;2023-05-10T05:55:06;99671.88;;;13.16;59.23
4022;BME280;2025;48.260;16.432;2023-05-10T05:57:33;99691.56;;;13.14;58.76
4022;BME280;2025;48.260;16.432;2023-05-10T06:00:00;99685.47;;;13.13;59.49
4022;BME280;2025;48.260;16.432;2023-05-10T06:02:28;99688.63;;;13.23;58.66
4022;BME280;2025;48.260;16.432;2023-05-10T06:04:55;99690.56;;;13.30;58.77
4022;BME280;2025;48.260;16.432;2023-05-10T06:07:22;99685.97;;;13.38;58.25
4022;BME280;2025;48.260;16.432;2023-05-10T06:09:49;99694.53;;;13.40;58.85
4022;BME280;2025;48.260;16.432;2023-05-10T06:12:17;99693.00;;;13.53;58.41
4022;BME280;2025;48.260;16.432;2023-05-10T06:14:44;99695.16;;;13.42;58.16
4022;BME280;2025;48.260;16.432;2023-05-10T06:17:11;99690.94;;;13.48;59.01
4022;BME280;2025;48.260;16.432;2023-05-10T06:19:38;99704.09;;;13.63;58.16
4022;BME280;2025;48.260;16.432;2023-05-10T06:22:05;99705.06;;;13.83;57.24
4022;BME280;2025;48.260;16.432;2023-05-10T06:24:32;99708.78;;;13.89;57.60
4022;BME280;2025;48.260;16.432;2023-05-10T06:26:59;99700.72;;;13.97;56.90
4022;BME280;2025;48.260;16.432;2023-05-10T06:29:27;99710.97;;;14.07;56.91
4022;BME280;2025;48.260;16.432;2023-05-10T06:31:54;99702.47;;;14.18;55.80
4022;BME280;2025;48.260;16.432;2023-05-10T06:34:21;99709.38;;;14.12;55.09
4022;BME280;2025;48.260;16.432;2023-05-10T06:36:48;99711.59;;;14.09;55.63
4022;BME280;2025;48.260;16.432;2023-05-10T06:39:15;99715.44;;;14.06;55.48
4022;BME280;2025;48.260;16.432;2023-05-10T06:41:42;99714.56;;;13.99;56.35
4022;BME280;2025;48.260;16.432;2023-05-10T06:44:09;99718.50;;;14.10;55.62
4022;BME280;2025;48.260;16.432;2023-05-10T06:46:37;99717.16;;;14.21;55.68
4022;BME280;2025;48.260;16.432;2023-05-10T06:49:04;99713.13;;;14.25;56.82
4022;BME280;2025;48.260;16.432;2023-05-10T06:51:31;99714.78;;;14.32;56.31
4022;BME280;2025;48.260;16.432;2023-05-10T06:53:58;99713.84;;;14.47;55.68
4022;BME280;2025;48.260;16.432;2023-05-10T06:56:25;99715.50;;;14.48;55.86
4022;BME280;2025;48.260;16.432;2023-05-10T06:58:52;99709.44;;;14.54;56.44
4022;BME280;2025;48.260;16.432;2023-05-10T07:01:19;99715.09;;;14.51;55.51
4022;BME280;2025;48.260;16.432;2023-05-10T07:03:47;99704.47;;;14.44;56.04
4022;BME280;2025;48.260;16.432;2023-05-10T07:06:14;99707.03;;;14.59;55.62
4022;BME280;2025;48.260;16.432;2023-05-10T07:08:41;99711.13;;;14.62;55.58
4022;BME280;2025;48.260;16.432;2023-05-10T07:11:08;99701.81;;;14.79;55.01
4022;BME280;2025;48.260;16.432;2023-05-10T07:13:35;99702.63;;;14.80;54.38
4022;BME280;2025;48.260;16.432;2023-05-10T07:16:04;99702.25;;;14.89;54.80
4022;BME280;2025;48.260;16.432;2023-05-10T07:18:32;99704.31;;;14.94;55.07
4022;BME280;2025;48.260;16.432;2023-05-10T07:21:00;99707.44;;;15.24;54.19
4022;BME280;2025;48.260;16.432;2023-05-10T07:23:27;99702.38;;;15.36;54.22
4022;BME280;2025;48.260;16.432;2023-05-10T07:25:54;99704.25;;;15.49;54.02
4022;BME280;2025;48.260;16.432;2023-05-10T07:28:23;99702.00;;;15.52;54.39
4022;BME280;2025;48.260;16.432;2023-05-10T07:30:50;99698.53;;;15.52;53.44
4022;BME280;2025;48.260;16.432;2023-05-10T07:33:18;99700.56;;;15.56;53.55
4022;BME280;2025;48.260;16.432;2023-05-10T07:35:45;99690.56;;;15.45;54.05
4022;BME280;2025;48.260;16.432;2023-05-10T07:38:13;99682.19;;;15.48;53.85
4022;BME280;2025;48.260;16.432;2023-05-10T07:40:40;99684.66;;;15.43;55.80
4022;BME280;2025;48.260;16.432;2023-05-10T07:43:07;99687.94;;;15.65;54.64
4022;BME280;2025;48.260;16.432;2023-05-10T07:45:34;99682.44;;;15.80;54.16
4022;BME280;2025;48.260;16.432;2023-05-10T07:48:01;99687.13;;;15.78;54.21
4022;BME280;2025;48.260;16.432;2023-05-10T07:50:28;99686.72;;;15.81;53.17
4022;BME280;2025;48.260;16.432;2023-05-10T07:52:55;99685.84;;;15.47;55.17
4022;BME280;2025;48.260;16.432;2023-05-10T07:55:23;99688.53;;;15.67;54.74
4022;BME280;2025;48.260;16.432;2023-05-10T07:57:50;99688.78;;;15.72;54.10
4022;BME280;2025;48.260;16.432;2023-05-10T08:00:18;99683.84;;;15.89;52.89
4022;BME280;2025;48.260;16.432;2023-05-10T08:02:45;99691.81;;;15.83;53.25
4022;BME280;2025;48.260;16.432;2023-05-10T08:05:13;99702.06;;;15.79;54.12
4022;BME280;2025;48.260;16.432;2023-05-10T08:07:40;99690.81;;;15.77;53.45
4022;BME280;2025;48.260;16.432;2023-05-10T08:10:09;99688.78;;;15.92;53.57
4022;BME280;2025;48.260;16.432;2023-05-10T08:12:38;99694.91;;;15.86;53.59
4022;BME280;2025;48.260;16.432;2023-05-10T08:15:06;99693.28;;;15.85;53.37
4022;BME280;2025;48.260;16.432;2023-05-10T08:17:33;99698.13;;;16.08;53.45
4022;BME280;2025;48.260;16.432;2023-05-10T08:20:01;99697.31;;;16.21;50.63
4022;BME280;2025;48.260;16.432;2023-05-10T08:22:28;99692.63;;;15.96;51.07
4022;BME280;2025;48.260;16.432;2023-05-10T08:24:55;99697.31;;;16.08;50.89
4022;BME280;2025;48.260;16.432;2023-05-10T08:27:22;99698.56;;;16.12;51.57
4022;BME280;2025;48.260;16.432;2023-05-10T08:29:50;99700.34;;;16.25;52.10
4022;BME280;2025;48.260;16.432;2023-05-10T08:32:17;99694.22;;;16.24;49.98
4022;BME280;2025;48.260;16.432;2023-05-10T08:34:44;99703.84;;;16.25;49.89
4022;BME280;2025;48.260;16.432;2023-05-10T08:37:11;99698.13;;;16.21;50.15
4022;BME280;2025;48.260;16.432;2023-05-10T08:39:38;99697.13;;;16.16;52.21
4022;BME280;2025;48.260;16.432;2023-05-10T08:42:06;99696.69;;;16.19;51.73
4022;BME280;2025;48.260;16.432;2023-05-10T08:44:35;99713.03;;;16.29;49.93
4022;BME280;2025;48.260;16.432;2023-05-10T08:47:05;99707.25;;;16.46;50.41
4022;BME280;2025;48.260;16.432;2023-05-10T08:49:33;99687.28;;;16.30;51.74
4022;BME280;2025;48.260;16.432;2023-05-10T08:52:03;99705.81;;;16.50;51.48
4022;BME280;2025;48.260;16.432;2023-05-10T08:54:32;99703.75;;;16.65;51.18
4022;BME280;2025;48.260;16.432;2023-05-10T08:57:00;99696.72;;;16.91;50.24
4022;BME280;2025;48.260;16.432;2023-05-10T08:59:27;99701.91;;;17.11;49.58
4022;BME280;2025;48.260;16.432;2023-05-10T09:01:57;99704.72;;;17.22;48.91
4022;BME280;2025;48.260;16.432;2023-05-10T09:04:27;99696.56;;;17.17;48.98
4022;BME280;2025;48.260;16.432;2023-05-10T09:06:54;99707.72;;;16.94;50.07
4022;BME280;2025;48.260;16.432;2023-05-10T09:09:21;99699.94;;;16.99;49.16
4022;BME280;2025;48.260;16.432;2023-05-10T09:11:48;99698.13;;;16.93;48.46
4022;BME280;2025;48.260;16.432;2023-05-10T09:14:16;99717.03;;;16.65;48.90
4022;BME280;2025;48.260;16.432;2023-05-10T09:16:43;99711.16;;;16.43;50.06
4022;BME280;2025;48.260;16.432;2023-05-10T09:19:10;99701.75;;;16.47;50.14
4022;BME280;2025;48.260;16.432;2023-05-10T09:21:39;99698.25;;;16.60;49.31
4022;BME280;2025;48.260;16.432;2023-05-10T09:24:07;99706.41;;;16.65;49.70
4022;BME280;2025;48.260;16.432;2023-05-10T09:26:35;99704.53;;;16.72;49.36
4022;BME280;2025;48.260;16.432;2023-05-10T09:29:02;99699.41;;;16.71;49.33
4022;BME280;2025;48.260;16.432;2023-05-10T09:31:47;99697.38;;;17.18;49.34
4022;BME280;2025;48.260;16.432;2023-05-10T09:34:17;99691.56;;;17.59;48.14
4022;BME280;2025;48.260;16.432;2023-05-10T09:36:54;99697.78;;;18.03;47.37
4022;BME280;2025;48.260;16.432;2023-05-10T09:39:30;99696.59;;;17.99;47.97
4022;BME280;2025;48.260;16.432;2023-05-10T09:41:58;99695.22;;;18.15;46.52
4022;BME280;2025;48.260;16.432;2023-05-10T09:44:25;99690.75;;;17.90;46.45
4022;BME280;2025;48.260;16.432;2023-05-10T09:46:52;99680.78;;;17.79;46.37
4022;BME280;2025;48.260;16.432;2023-05-10T09:49:20;99702.13;;;17.73;46.79
4022;BME280;2025;48.260;16.432;2023-05-10T09:51:47;99685.28;;;17.54;46.28
4022;BME280;2025;48.260;16.432;2023-05-10T09:54:25;99681.34;;;17.31;48.19
4022;BME280;2025;48.260;16.432;2023-05-10T09:56:52;99679.91;;;17.28;48.47
4022;BME280;2025;48.260;16.432;2023-05-10T09:59:19;99678.44;;;17.01;48.84
4022;BME280;2025;48.260;16.432;2023-05-10T10:01:49;99693.19;;;16.97;49.79
4022;BME280;2025;48.260;16.432;2023-05-10T10:04:17;99681.78;;;17.28;48.32
4022;BME280;2025;48.260;16.432;2023-05-10T10:06:44;99686.91;;;17.55;48.27
4022;BME280;2025;48.260;16.432;2023-05-10T10:09:11;99686.09;;;17.86;48.29
4022;BME280;2025;48.260;16.432;2023-05-10T10:11:39;99690.44;;;18.24;46.01
4022;BME280;2025;48.260;16.432;2023-05-10T10:14:06;99685.56;;;18.39;45.22
4022;BME280;2025;48.260;16.432;2023-05-10T10:16:33;99677.16;;;18.72;44.33
4022;BME280;2025;48.260;16.432;2023-05-10T10:19:01;99669.69;;;18.63;44.25
4022;BME280;2025;48.260;16.432;2023-05-10T10:21:28;99681.78;;;18.65;43.99
4022;BME280;2025;48.260;16.432;2023-05-10T10:23:56;99673.31;;;18.87;44.04
4022;BME280;2025;48.260;16.432;2023-05-10T10:26:23;99669.44;;;19.43;43.16
4022;BME280;2025;48.260;16.432;2023-05-10T10:29:02;99663.03;;;19.98;41.67
4022;BME280;2025;48.260;16.432;2023-05-10T10:31:36;99666.50;;;20.10;42.31
4022;BME280;2025;48.260;16.432;2023-05-10T10:34:06;99664.72;;;20.28;42.57
4022;BME280;2025;48.260;16.432;2023-05-10T10:36:40;99655.41;;;20.42;39.93
4022;BME280;2025;48.260;16.432;2023-05-10T10:39:09;99672.53;;;19.82;42.23
4022;BME280;2025;48.260;16.432;2023-05-10T10:41:39;99666.66;;;19.50;43.91
4022;BME280;2025;48.260;16.432;2023-05-10T10:44:43;99678.25;;;19.44;41.97
4022;BME280;2025;48.260;16.432;2023-05-10T10:47:22;99669.78;;;19.35;42.35
4022;BME280;2025;48.260;16.432;2023-05-10T10:50:06;99659.91;;;19.35;42.48
4022;BME280;2025;48.260;16.432;2023-05-10T10:52:34;99655.97;;;19.50;42.72
4022;BME280;2025;48.260;16.432;2023-05-10T10:55:03;99653.56;;;19.18;43.51
4022;BME280;2025;48.260;16.432;2023-05-10T10:57:32;99665.72;;;19.02;44.44
4022;BME280;2025;48.260;16.432;2023-05-10T11:00:23;99673.03;;;19.37;41.97
4022;BME280;2025;48.260;16.432;2023-05-10T11:02:52;99660.16;;;19.46;42.10
4022;BME280;2025;48.260;16.432;2023-05-10T11:05:38;99664.38;;;19.65;40.62
4022;BME280;2025;48.260;16.432;2023-05-10T11:08:16;99657.09;;;19.84;41.67
4022;BME280;2025;48.260;16.432;2023-05-10T11:10:51;99664.63;;;19.87;39.96
4022;BME280;2025;48.260;16.432;2023-05-10T11:13:27;99651.97;;;19.71;41.48
4022;BME280;2025;48.260;16.432;2023-05-10T11:15:57;99665.75;;;19.56;40.76
4022;BME280;2025;48.260;16.432;2023-05-10T11:18:25;99666.78;;;19.67;40.86
4022;BME280;2025;48.260;16.432;2023-05-10T11:20:57;99654.06;;;19.81;41.13
4022;BME280;2025;48.260;16.432;2023-05-10T11:23:30;99649.28;;;19.83;39.63
4022;BME280;2025;48.260;16.432;2023-05-10T11:25:56;99657.44;;;19.88;40.49
4022;BME280;2025;48.260;16.432;2023-05-10T11:28:23;99654.06;;;19.81;40.52
4022;BME280;2025;48.260;16.432;2023-05-10T11:30:51;99647.91;;;19.80;40.50
4022;BME280;2025;48.260;16.432;2023-05-10T11:33:19;99651.25;;;20.23;39.64
4022;BME280;2025;48.260;16.432;2023-05-10T11:35:46;99641.22;;;20.30;38.17
4022;BME280;2025;48.260;16.432;2023-05-10T11:38:14;99644.06;;;19.88;40.64
4022;BME280;2025;48.260;16.432;2023-05-10T11:40:41;99647.78;;;19.98;39.73
4022;BME280;2025;48.260;16.432;2023-05-10T11:43:09;99653.47;;;20.26;38.10
4022;BME280;2025;48.260;16.432;2023-05-10T11:45:42;99656.84;;;19.97;38.56
4022;BME280;2025;48.260;16.432;2023-05-10T11:48:09;99652.50;;;19.61;39.05
4022;BME280;2025;48.260;16.432;2023-05-10T11:50:38;99642.84;;;19.60;40.27
4022;BME280;2025;48.260;16.432;2023-05-10T11:53:05;99660.56;;;19.96;39.02
4022;BME280;2025;48.260;16.432;2023-05-10T11:55:33;99649.28;;;19.83;39.34
4022;BME280;2025;48.260;16.432;2023-05-10T11:58:01;99642.09;;;19.95;39.44
4022;BME280;2025;48.260;16.432;2023-05-10T12:00:29;99638.53;;;20.41;38.37
4022;BME280;2025;48.260;16.432;2023-05-10T12:02:57;99643.00;;;20.12;37.45
4022;BME280;2025;48.260;16.432;2023-05-10T12:05:24;99659.75;;;19.84;38.65
4022;BME280;2025;48.260;16.432;2023-05-10T12:07:53;99640.81;;;19.74;38.00
4022;BME280;2025;48.260;16.432;2023-05-10T12:10:37;99639.19;;;20.08;38.54
4022;BME280;2025;48.260;16.432;2023-05-10T12:13:03;99641.16;;;20.53;39.37
4022;BME280;2025;48.260;16.432;2023-05-10T12:15:30;99652.25;;;20.45;37.46
4022;BME280;2025;48.260;16.432;2023-05-10T12:17:57;99643.47;;;19.97;38.54
4022;BME280;2025;48.260;16.432;2023-05-10T12:20:27;99642.44;;;19.98;38.94
4022;BME280;2025;48.260;16.432;2023-05-10T12:22:57;99635.81;;;19.77;39.96
4022;BME280;2025;48.260;16.432;2023-05-10T12:25:30;99645.97;;;19.33;40.56
4022;BME280;2025;48.260;16.432;2023-05-10T12:27:58;99645.25;;;19.26;40.69
4022;BME280;2025;48.260;16.432;2023-05-10T12:30:27;99643.50;;;19.20;40.57
4022;BME280;2025;48.260;16.432;2023-05-10T12:33:00;99643.28;;;19.33;39.66
4022;BME280;2025;48.260;16.432;2023-05-10T12:35:30;99632.56;;;19.87;40.08
4022;BME280;2025;48.260;16.432;2023-05-10T12:37:58;99636.00;;;20.23;37.21
4022;BME280;2025;48.260;16.432;2023-05-10T12:40:25;99624.94;;;20.43;36.59
4022;BME280;2025;48.260;16.432;2023-05-10T12:42:52;99633.59;;;20.21;37.18
4022;BME280;2025;48.260;16.432;2023-05-10T12:45:19;99634.53;;;19.68;38.34
4022;BME280;2025;48.260;16.432;2023-05-10T12:47:47;99622.94;;;19.74;37.91
4022;BME280;2025;48.260;16.432;2023-05-10T12:50:14;99619.97;;;20.23;36.81
4022;BME280;2025;48.260;16.432;2023-05-10T12:52:41;99625.28;;;20.35;36.94
4022;BME280;2025;48.260;16.432;2023-05-10T12:55:09;99625.06;;;20.77;37.02
4022;BME280;2025;48.260;16.432;2023-05-10T12:57:36;99617.59;;;21.08;36.49
4022;BME280;2025;48.260;16.432;2023-05-10T13:00:06;99634.13;;;21.04;35.44
4022;BME280;2025;48.260;16.432;2023-05-10T13:02:33;99615.59;;;20.86;36.43
4022;BME280;2025;48.260;16.432;2023-05-10T13:05:00;99623.41;;;20.59;38.22
4022;BME280;2025;48.260;16.432;2023-05-10T13:07:27;99620.78;;;19.65;38.72
4022;BME280;2025;48.260;16.432;2023-05-10T13:09:54;99611.06;;;19.58;39.39
4022;BME280;2025;48.260;16.432;2023-05-10T13:12:22;99611.19;;;19.99;39.37
4022;BME280;2025;48.260;16.432;2023-05-10T13:14:49;99609.81;;;20.37;39.39
4022;BME280;2025;48.260;16.432;2023-05-10T13:17:17;99616.94;;;20.72;38.41
4022;BME280;2025;48.260;16.432;2023-05-10T13:19:44;99612.75;;;20.35;37.60
4022;BME280;2025;48.260;16.432;2023-05-10T13:22:11;99614.94;;;19.74;39.37